sensor_id;sensor_type;location;lat;lon;timestamp;P1;durP1;ratioP1;P2;durP2;ratioP2
20802;SDS011;10562;-33.856;151.182;2023-06-24T00:00:49;1.75;;;0.50;;
20802;SDS011;10562;-33.856;151.182;2023-06-24T00:03:20;1.17;;;0.50;;
20802;SDS011;10562;-33.856;151.182;2023-06-24T00:05:53;2.88;;;0.73;;
20802;SDS011;10562;-33.856;151.182;2023-06-24T00:08:23;3.05;;;0.85;;
20802;SDS011;10562;-33.856;151.182;2023-06-24T00:11:00;2.25;;;0.60;;
20802;SDS011;10562;-33.856;151.182;2023-06-24T00:13:31;4.40;;;0.63;;
20802;SDS011;10562;-33.856;151.182;2023-06-24T00:16:02;2.25;;;0.50;;
20802;SDS011;10562;-33.856;151.182;2023-06-24T00:18:33;3.42;;;0.88;;
20802;SDS011;10562;-33.856;151.182;2023-06-24T00:21:09;2.70;;;0.70;;
20802;SDS011;10562;-33.856;151.182;2023-06-24T00:23:43;2.25;;;0.68;;
20802;SDS011;10562;-33.856;151.182;2023-06-24T00:26:14;1.63;;;0.70;;
20802;SDS011;10562;-33.856;151.182;2023-06-24T00:28:45;1.27;;;0.60;;
20802;SDS011;10562;-33.856;151.182;2023-06-24T00:31:16;3.03;;;0.80;;
20802;SDS011;10562;-33.856;151.182;2023-06-24T00:33:48;1.15;;;0.70;;
20802;SDS011;10562;-33.856;151.182;2023-06-24T00:36:21;1.25;;;0.60;;
20802;SDS011;10562;-33.856;151.182;2023-06-24T00:38:53;2.42;;;0.60;;
20802;SDS011;10562;-33.856;151.182;2023-06-24T00:41:27;1.27;;;0.60;;
20802;SDS011;10562;-33.856;151.182;2023-06-24T00:43:58;2.38;;;0.80;;
20802;SDS011;10562;-33.856;151.182;2023-06-24T00:46:29;1.05;;;0.65;;
20802;SDS011;10562;-33.856;151.182;2023-06-24T00:49:01;1.55;;;0.70;;
20802;SDS011;10562;-33.856;151.182;2023-06-24T00:51:33;2.38;;;0.70;;
20802;SDS011;10562;-33.856;151.182;2023-06-24T00:54:06;2.10;;;0.70;;
20802;SDS011;10562;-33.856;151.182;2023-06-24T00:56:37;1.38;;;0.60;;
20802;SDS011;10562;-33.856;151.182;2023-06-24T00:59:09;1.70;;;0.52;;
20802;SDS011;10562;-33.856;151.182;2023-06-24T01:01:44;1.25;;;0.50;;
20802;SDS011;10562;-33.856;151.182;2023-06-24T01:04:15;5.30;;;1.30;;
20802;SDS011;10562;-33.856;151.182;2023-06-24T01:06:48;1.20;;;0.47;;
20802;SDS011;10562;-33.856;151.182;2023-06-24T01:09:20;1.77;;;0.50;;
20802;SDS011;10562;-33.856;151.182;2023-06-24T01:11:51;0.40;;;0.40;;
20802;SDS011;10562;-33.856;151.182;2023-06-24T01:14:21;1.63;;;0.52;;
20802;SDS011;10562;-33.856;151.182;2023-06-24T01:16:55;4.53;;;0.68;;
20802;SDS011;10562;-33.856;151.182;2023-06-24T01:22:42;1.63;;;0.57;;
20802;SDS011;10562;-33.856;151.182;2023-06-24T01:25:36;0.43;;;0.38;;
20802;SDS011;10562;-33.856;151.182;2023-06-24T01:28:25;2.15;;;0.50;;
20802;SDS011;10562;-33.856;151.182;2023-06-24T01:31:27;0.93;;;0.40;;
20802;SDS011;10562;-33.856;151.182;2023-06-24T01:34:06;3.22;;;0.50;;
20802;SDS011;10562;-33.856;151.182;2023-06-24T01:36:47;1.90;;;0.52;;
20802;SDS011;10562;-33.856;151.182;2023-06-24T01:39:24;1.20;;;0.60;;
20802;SDS011;10562;-33.856;151.182;2023-06-24T01:42:00;0.60;;;0.40;;
20802;SDS011;10562;-33.856;151.182;2023-06-24T01:44:36;1.42;;;0.57;;
20802;SDS011;10562;-33.856;151.182;2023-06-24T01:47:12;2.63;;;0.68;;
20802;SDS011;10562;-33.856;151.182;2023-06-24T01:49:47;2.70;;;0.60;;
20802;SDS011;10562;-33.856;151.182;2023-06-24T01:52:21;0.93;;;0.40;;
20802;SDS011;10562;-33.856;151.182;2023-06-24T01:54:52;1.17;;;0.47;;
20802;SDS011;10562;-33.856;151.182;2023-06-24T01:57:24;2.42;;;0.57;;
20802;SDS011;10562;-33.856;151.182;2023-06-24T01:59:56;2.15;;;0.50;;
20802;SDS011;10562;-33.856;151.182;2023-06-24T02:02:30;2.63;;;0.60;;
20802;SDS011;10562;-33.856;151.182;2023-06-24T02:05:02;3.58;;;0.60;;
20802;SDS011;10562;-33.856;151.182;2023-06-24T02:07:35;1.25;;;0.50;;
20802;SDS011;10562;-33.856;151.182;2023-06-24T02:10:07;1.30;;;0.60;;
20802;SDS011;10562;-33.856;151.182;2023-06-24T02:12:39;3.90;;;0.98;;
20802;SDS011;10562;-33.856;151.182;2023-06-24T02:15:12;0.95;;;0.50;;
20802;SDS011;10562;-33.856;151.182;2023-06-24T02:17:46;1.08;;;0.50;;
20802;SDS011;10562;-33.856;151.182;2023-06-24T02:20:22;1.63;;;0.50;;
20802;SDS011;10562;-33.856;151.182;2023-06-24T02:22:54;2.60;;;0.40;;
20802;SDS011;10562;-33.856;151.182;2023-06-24T02:25:27;1.15;;;0.40;;
20802;SDS011;10562;-33.856;151.182;2023-06-24T02:27:58;3.08;;;0.50;;
20802;SDS011;10562;-33.856;151.182;2023-06-24T02:30:30;19.98;;;3.92;;
20802;SDS011;10562;-33.856;151.182;2023-06-24T02:33:04;1.75;;;0.55;;
20802;SDS011;10562;-33.856;151.182;2023-06-24T02:35:35;1.27;;;0.50;;
20802;SDS011;10562;-33.856;151.182;2023-06-24T02:38:07;1.13;;;0.60;;
20802;SDS011;10562;-33.856;151.182;2023-06-24T02:40:38;2.60;;;0.40;;
20802;SDS011;10562;-33.856;151.182;2023-06-24T02:43:11;1.33;;;0.70;;
20802;SDS011;10562;-33.856;151.182;2023-06-24T02:45:42;0.82;;;0.50;;
20802;SDS011;10562;-33.856;151.182;2023-06-24T02:48:17;1.13;;;0.52;;
20802;SDS011;10562;-33.856;151.182;2023-06-24T02:50:49;1.35;;;0.50;;
20802;SDS011;10562;-33.856;151.182;2023-06-24T02:53:20;2.50;;;0.50;;
20802;SDS011;10562;-33.856;151.182;2023-06-24T02:55:51;2.05;;;0.50;;
20802;SDS011;10562;-33.856;151.182;2023-06-24T02:58:24;1.60;;;0.55;;
20802;SDS011;10562;-33.856;151.182;2023-06-24T03:00:58;2.03;;;0.57;;
20802;SDS011;10562;-33.856;151.182;2023-06-24T03:03:34;0.60;;;0.40;;
20802;SDS011;10562;-33.856;151.182;2023-06-24T03:06:06;2.08;;;0.60;;
20802;SDS011;10562;-33.856;151.182;2023-06-24T03:08:38;1.17;;;0.40;;
20802;SDS011;10562;-33.856;151.182;2023-06-24T03:11:11;2.58;;;0.70;;
20802;SDS011;10562;-33.856;151.182;2023-06-24T03:13:43;2.85;;;0.50;;
20802;SDS011;10562;-33.856;151.182;2023-06-24T03:16:14;3.08;;;0.47;;
20802;SDS011;10562;-33.856;151.182;2023-06-24T03:18:46;1.40;;;0.60;;
20802;SDS011;10562;-33.856;151.182;2023-06-24T03:21:17;0.43;;;0.43;;
20802;SDS011;10562;-33.856;151.182;2023-06-24T03:23:54;0.70;;;0.50;;
20802;SDS011;10562;-33.856;151.182;2023-06-24T03:26:25;2.42;;;0.60;;
20802;SDS011;10562;-33.856;151.182;2023-06-24T03:29:01;1.35;;;0.50;;
20802;SDS011;10562;-33.856;151.182;2023-06-24T03:31:32;1.08;;;0.50;;
20802;SDS011;10562;-33.856;151.182;2023-06-24T03:34:05;1.70;;;0.50;;
20802;SDS011;10562;-33.856;151.182;2023-06-24T03:36:36;0.80;;;0.43;;
20802;SDS011;10562;-33.856;151.182;2023-06-24T03:39:07;1.17;;;0.60;;
20802;SDS011;10562;-33.856;151.182;2023-06-24T03:41:38;3.15;;;0.88;;
20802;SDS011;10562;-33.856;151.182;2023-06-24T03:44:09;1.83;;;0.50;;
20802;SDS011;10562;-33.856;151.182;2023-06-24T03:46:39;1.92;;;0.52;;
20802;SDS011;10562;-33.856;151.182;2023-06-24T03:49:12;0.65;;;0.30;;
20802;SDS011;10562;-33.856;151.182;2023-06-24T03:51:43;1.00;;;0.55;;
20802;SDS011;10562;-33.856;151.182;2023-06-24T03:54:13;2.30;;;0.47;;
20802;SDS011;10562;-33.856;151.182;2023-06-24T03:56:44;1.35;;;0.40;;
20802;SDS011;10562;-33.856;151.182;2023-06-24T03:59:15;1.85;;;0.60;;
20802;SDS011;10562;-33.856;151.182;2023-06-24T04:01:46;1.92;;;0.40;;
20802;SDS011;10562;-33.856;151.182;2023-06-24T04:04:19;0.90;;;0.40;;
20802;SDS011;10562;-33.856;151.182;2023-06-24T04:06:50;1.40;;;0.40;;
20802;SDS011;10562;-33.856;151.182;2023-06-24T04:09:21;1.40;;;0.40;;
20802;SDS011;10562;-33.856;151.182;2023-06-24T04:11:52;0.60;;;0.43;;
20802;SDS011;10562;-33.856;151.182;2023-06-24T04:14:23;0.70;;;0.47;;
20802;SDS011;10562;-33.856;151.182;2023-06-24T04:16:53;1.15;;;0.40;;
20802;SDS011;10562;-33.856;151.182;2023-06-24T04:19:26;2.40;;;0.60;;
20802;SDS011;10562;-33.856;151.182;2023-06-24T04:21:57;1.35;;;0.60;;
20802;SDS011;10562;-33.856;151.182;2023-06-24T04:24:27;2.25;;;0.65;;
20802;SDS011;10562;-33.856;151.182;2023-06-24T04:26:58;2.60;;;0.63;;
20802;SDS011;10562;-33.856;151.182;2023-06-24T04:29:29;1.27;;;0.70;;
20802;SDS011;10562;-33.856;151.182;2023-06-24T04:32:00;0.60;;;0.57;;
20802;SDS011;10562;-33.856;151.182;2023-06-24T04:34:33;3.10;;;0.85;;
20802;SDS011;10562;-33.856;151.182;2023-06-24T04:37:04;3.40;;;0.73;;
20802;SDS011;10562;-33.856;151.182;2023-06-24T04:39:35;0.75;;;0.50;;
20802;SDS011;10562;-33.856;151.182;2023-06-24T04:42:05;0.98;;;0.55;;
20802;SDS011;10562;-33.856;151.182;2023-06-24T04:44:36;0.80;;;0.50;;
20802;SDS011;10562;-33.856;151.182;2023-06-24T04:47:07;1.95;;;0.60;;
20802;SDS011;10562;-33.856;151.182;2023-06-24T04:49:41;1.67;;;0.40;;
20802;SDS011;10562;-33.856;151.182;2023-06-24T04:52:12;1.40;;;0.50;;
20802;SDS011;10562;-33.856;151.182;2023-06-24T04:54:43;1.45;;;0.60;;
20802;SDS011;10562;-33.856;151.182;2023-06-24T04:57:23;0.52;;;0.38;;
20802;SDS011;10562;-33.856;151.182;2023-06-24T04:59:55;1.33;;;0.40;;
20802;SDS011;10562;-33.856;151.182;2023-06-24T05:02:26;1.60;;;0.57;;
20802;SDS011;10562;-33.856;151.182;2023-06-24T05:04:59;0.88;;;0.52;;
20802;SDS011;10562;-33.856;151.182;2023-06-24T05:07:30;0.75;;;0.57;;
20802;SDS011;10562;-33.856;151.182;2023-06-24T05:10:01;0.90;;;0.50;;
20802;SDS011;10562;-33.856;151.182;2023-06-24T05:12:32;1.42;;;0.32;;
20802;SDS011;10562;-33.856;151.182;2023-06-24T05:15:03;1.77;;;0.70;;
20802;SDS011;10562;-33.856;151.182;2023-06-24T05:17:34;3.25;;;0.60;;
20802;SDS011;10562;-33.856;151.182;2023-06-24T05:20:07;2.22;;;0.65;;
20802;SDS011;10562;-33.856;151.182;2023-06-24T05:22:38;1.00;;;0.52;;
20802;SDS011;10562;-33.856;151.182;2023-06-24T05:25:09;0.68;;;0.38;;
20802;SDS011;10562;-33.856;151.182;2023-06-24T05:27:40;1.48;;;0.50;;
20802;SDS011;10562;-33.856;151.182;2023-06-24T05:30:11;3.03;;;0.70;;
20802;SDS011;10562;-33.856;151.182;2023-06-24T05:32:43;0.80;;;0.50;;
20802;SDS011;10562;-33.856;151.182;2023-06-24T05:35:16;1.40;;;0.80;;
20802;SDS011;10562;-33.856;151.182;2023-06-24T05:37:47;1.33;;;0.70;;
20802;SDS011;10562;-33.856;151.182;2023-06-24T05:40:17;1.55;;;0.70;;
20802;SDS011;10562;-33.856;151.182;2023-06-24T05:42:48;3.05;;;0.77;;
20802;SDS011;10562;-33.856;151.182;2023-06-24T05:45:19;3.35;;;0.80;;
20802;SDS011;10562;-33.856;151.182;2023-06-24T05:47:50;1.67;;;0.60;;
20802;SDS011;10562;-33.856;151.182;2023-06-24T05:50:23;1.42;;;0.70;;
20802;SDS011;10562;-33.856;151.182;2023-06-24T05:52:53;1.67;;;0.82;;
20802;SDS011;10562;-33.856;151.182;2023-06-24T05:55:24;1.73;;;0.70;;
20802;SDS011;10562;-33.856;151.182;2023-06-24T05:57:55;1.33;;;0.60;;
20802;SDS011;10562;-33.856;151.182;2023-06-24T06:00:36;5.28;;;0.80;;
20802;SDS011;10562;-33.856;151.182;2023-06-24T06:03:06;2.53;;;0.80;;
20802;SDS011;10562;-33.856;151.182;2023-06-24T06:05:39;9.18;;;0.93;;
20802;SDS011;10562;-33.856;151.182;2023-06-24T06:08:10;15.50;;;1.60;;
20802;SDS011;10562;-33.856;151.182;2023-06-24T06:10:41;10.50;;;1.00;;
20802;SDS011;10562;-33.856;151.182;2023-06-24T06:13:12;5.40;;;0.90;;
20802;SDS011;10562;-33.856;151.182;2023-06-24T06:15:43;2.13;;;0.88;;
20802;SDS011;10562;-33.856;151.182;2023-06-24T06:18:14;1.42;;;0.77;;
20802;SDS011;10562;-33.856;151.182;2023-06-24T06:20:47;3.75;;;0.90;;
20802;SDS011;10562;-33.856;151.182;2023-06-24T06:23:17;5.47;;;1.05;;
20802;SDS011;10562;-33.856;151.182;2023-06-24T06:25:48;2.63;;;0.95;;
20802;SDS011;10562;-33.856;151.182;2023-06-24T06:28:19;2.33;;;0.82;;
20802;SDS011;10562;-33.856;151.182;2023-06-24T06:30:50;1.98;;;0.90;;
20802;SDS011;10562;-33.856;151.182;2023-06-24T06:33:23;2.97;;;0.80;;
20802;SDS011;10562;-33.856;151.182;2023-06-24T06:35:55;1.02;;;0.80;;
20802;SDS011;10562;-33.856;151.182;2023-06-24T06:38:27;2.50;;;1.10;;
20802;SDS011;10562;-33.856;151.182;2023-06-24T06:40:58;1.98;;;0.90;;
20802;SDS011;10562;-33.856;151.182;2023-06-24T06:43:29;1.08;;;0.95;;
20802;SDS011;10562;-33.856;151.182;2023-06-24T06:45:59;1.45;;;1.00;;
20802;SDS011;10562;-33.856;151.182;2023-06-24T06:48:30;2.28;;;1.00;;
20802;SDS011;10562;-33.856;151.182;2023-06-24T06:51:03;2.75;;;1.10;;
20802;SDS011;10562;-33.856;151.182;2023-06-24T06:53:34;1.48;;;1.00;;
20802;SDS011;10562;-33.856;151.182;2023-06-24T06:56:05;3.45;;;0.90;;
20802;SDS011;10562;-33.856;151.182;2023-06-24T06:58:36;1.92;;;1.00;;
20802;SDS011;10562;-33.856;151.182;2023-06-24T07:01:07;2.80;;;1.00;;
20802;SDS011;10562;-33.856;151.182;2023-06-24T07:03:38;2.45;;;1.45;;
20802;SDS011;10562;-33.856;151.182;2023-06-24T07:06:11;6.22;;;1.92;;
20802;SDS011;10562;-33.856;151.182;2023-06-24T07:08:42;4.13;;;1.50;;
20802;SDS011;10562;-33.856;151.182;2023-06-24T07:11:13;2.72;;;1.50;;
20802;SDS011;10562;-33.856;151.182;2023-06-24T07:13:44;3.35;;;1.70;;
20802;SDS011;10562;-33.856;151.182;2023-06-24T07:16:17;1.77;;;1.30;;
20802;SDS011;10562;-33.856;151.182;2023-06-24T07:18:48;2.78;;;1.30;;
20802;SDS011;10562;-33.856;151.182;2023-06-24T07:21:24;3.78;;;1.63;;
20802;SDS011;10562;-33.856;151.182;2023-06-24T07:23:55;31.45;;;11.00;;
20802;SDS011;10562;-33.856;151.182;2023-06-24T07:26:27;24.73;;;9.35;;
20802;SDS011;10562;-33.856;151.182;2023-06-24T07:28:58;9.77;;;3.72;;
20802;SDS011;10562;-33.856;151.182;2023-06-24T07:31:29;17.52;;;6.05;;
20802;SDS011;10562;-33.856;151.182;2023-06-24T07:34:00;26.30;;;9.13;;
20802;SDS011;10562;-33.856;151.182;2023-06-24T07:36:33;22.60;;;7.80;;
20802;SDS011;10562;-33.856;151.182;2023-06-24T07:39:04;11.73;;;5.00;;
20802;SDS011;10562;-33.856;151.182;2023-06-24T07:41:35;10.20;;;4.10;;
20802;SDS011;10562;-33.856;151.182;2023-06-24T07:44:08;8.90;;;3.22;;
20802;SDS011;10562;-33.856;151.182;2023-06-24T07:46:39;5.53;;;2.70;;
20802;SDS011;10562;-33.856;151.182;2023-06-24T07:49:10;3.67;;;2.00;;
20802;SDS011;10562;-33.856;151.182;2023-06-24T07:51:47;5.68;;;2.17;;
20802;SDS011;10562;-33.856;151.182;2023-06-24T07:54:18;4.18;;;1.80;;
20802;SDS011;10562;-33.856;151.182;2023-06-24T07:56:49;3.33;;;1.42;;
20802;SDS011;10562;-33.856;151.182;2023-06-24T07:59:20;3.65;;;1.30;;
20802;SDS011;10562;-33.856;151.182;2023-06-24T08:01:51;3.33;;;1.35;;
20802;SDS011;10562;-33.856;151.182;2023-06-24T08:04:26;2.35;;;1.30;;
20802;SDS011;10562;-33.856;151.182;2023-06-24T08:07:02;3.15;;;1.40;;
20802;SDS011;10562;-33.856;151.182;2023-06-24T08:09:34;2.20;;;1.30;;
20802;SDS011;10562;-33.856;151.182;2023-06-24T08:12:05;2.90;;;1.35;;
20802;SDS011;10562;-33.856;151.182;2023-06-24T08:14:36;2.33;;;1.10;;
20802;SDS011;10562;-33.856;151.182;2023-06-24T08:17:07;2.10;;;1.30;;
20802;SDS011;10562;-33.856;151.182;2023-06-24T08:19:38;2.55;;;1.50;;
20802;SDS011;10562;-33.856;151.182;2023-06-24T08:22:11;2.55;;;1.63;;
20802;SDS011;10562;-33.856;151.182;2023-06-24T08:24:42;3.25;;;2.00;;
20802;SDS011;10562;-33.856;151.182;2023-06-24T08:27:13;3.03;;;2.05;;
20802;SDS011;10562;-33.856;151.182;2023-06-24T08:29:44;3.13;;;1.95;;
20802;SDS011;10562;-33.856;151.182;2023-06-24T08:32:16;3.72;;;2.20;;
20802;SDS011;10562;-33.856;151.182;2023-06-24T08:34:48;3.83;;;2.10;;
20802;SDS011;10562;-33.856;151.182;2023-06-24T08:37:20;4.40;;;1.92;;
20802;SDS011;10562;-33.856;151.182;2023-06-24T08:39:51;3.15;;;1.85;;
20802;SDS011;10562;-33.856;151.182;2023-06-24T08:42:23;5.20;;;2.03;;
20802;SDS011;10562;-33.856;151.182;2023-06-24T08:44:55;6.68;;;2.08;;
20802;SDS011;10562;-33.856;151.182;2023-06-24T08:47:27;3.58;;;2.20;;
20802;SDS011;10562;-33.856;151.182;2023-06-24T08:50:03;3.08;;;1.98;;
20802;SDS011;10562;-33.856;151.182;2023-06-24T08:52:41;3.08;;;1.83;;
20802;SDS011;10562;-33.856;151.182;2023-06-24T08:55:16;6.75;;;3.22;;
20802;SDS011;10562;-33.856;151.182;2023-06-24T08:57:51;3.92;;;2.08;;
20802;SDS011;10562;-33.856;151.182;2023-06-24T09:00:25;2.65;;;1.75;;
20802;SDS011;10562;-33.856;151.182;2023-06-24T09:02:57;3.67;;;1.90;;
20802;SDS011;10562;-33.856;151.182;2023-06-24T09:05:29;3.22;;;1.98;;
20802;SDS011;10562;-33.856;151.182;2023-06-24T09:08:05;3.45;;;2.15;;
20802;SDS011;10562;-33.856;151.182;2023-06-24T09:10:36;3.28;;;2.10;;
20802;SDS011;10562;-33.856;151.182;2023-06-24T09:13:08;2.88;;;1.90;;
20802;SDS011;10562;-33.856;151.182;2023-06-24T09:15:39;4.40;;;2.13;;
20802;SDS011;10562;-33.856;151.182;2023-06-24T09:18:10;3.72;;;2.10;;
20802;SDS011;10562;-33.856;151.182;2023-06-24T09:20:43;3.95;;;2.10;;
20802;SDS011;10562;-33.856;151.182;2023-06-24T09:23:24;4.35;;;2.33;;
20802;SDS011;10562;-33.856;151.182;2023-06-24T09:25:56;3.33;;;2.00;;
20802;SDS011;10562;-33.856;151.182;2023-06-24T09:28:29;4.05;;;2.10;;
20802;SDS011;10562;-33.856;151.182;2023-06-24T09:31:08;3.67;;;2.10;;
20802;SDS011;10562;-33.856;151.182;2023-06-24T09:33:40;3.80;;;2.00;;
20802;SDS011;10562;-33.856;151.182;2023-06-24T09:36:12;3.38;;;2.00;;
20802;SDS011;10562;-33.856;151.182;2023-06-24T09:38:46;2.50;;;1.70;;
20802;SDS011;10562;-33.856;151.182;2023-06-24T09:41:17;15.75;;;6.70;;
20802;SDS011;10562;-33.856;151.182;2023-06-24T09:43:48;6.35;;;3.45;;
20802;SDS011;10562;-33.856;151.182;2023-06-24T09:46:19;3.17;;;2.15;;
20802;SDS011;10562;-33.856;151.182;2023-06-24T09:48:50;3.83;;;2.30;;
20802;SDS011;10562;-33.856;151.182;2023-06-24T09:51:20;2.85;;;1.90;;
20802;SDS011;10562;-33.856;151.182;2023-06-24T09:53:54;2.65;;;1.70;;
20802;SDS011;10562;-33.856;151.182;2023-06-24T09:56:26;3.58;;;1.80;;
20802;SDS011;10562;-33.856;151.182;2023-06-24T09:58:58;3.45;;;1.85;;
20802;SDS011;10562;-33.856;151.182;2023-06-24T10:01:30;2.83;;;1.83;;
20802;SDS011;10562;-33.856;151.182;2023-06-24T10:04:04;3.03;;;1.80;;
20802;SDS011;10562;-33.856;151.182;2023-06-24T10:06:35;2.35;;;1.45;;
20802;SDS011;10562;-33.856;151.182;2023-06-24T10:09:08;3.45;;;2.00;;
20802;SDS011;10562;-33.856;151.182;2023-06-24T10:11:43;3.80;;;1.70;;
20802;SDS011;10562;-33.856;151.182;2023-06-24T10:14:14;2.67;;;1.65;;
20802;SDS011;10562;-33.856;151.182;2023-06-24T10:16:45;2.65;;;1.52;;
20802;SDS011;10562;-33.856;151.182;2023-06-24T10:19:19;3.20;;;1.60;;
20802;SDS011;10562;-33.856;151.182;2023-06-24T10:21:50;3.10;;;1.73;;
20802;SDS011;10562;-33.856;151.182;2023-06-24T10:24:30;8.15;;;2.70;;
20802;SDS011;10562;-33.856;151.182;2023-06-24T10:27:05;5.00;;;2.80;;
20802;SDS011;10562;-33.856;151.182;2023-06-24T10:29:37;4.57;;;2.22;;
20802;SDS011;10562;-33.856;151.182;2023-06-24T10:32:08;5.20;;;2.20;;
20802;SDS011;10562;-33.856;151.182;2023-06-24T10:34:40;4.93;;;2.08;;
20802;SDS011;10562;-33.856;151.182;2023-06-24T10:37:12;3.83;;;2.30;;
20802;SDS011;10562;-33.856;151.182;2023-06-24T10:39:50;5.28;;;2.50;;
20802;SDS011;10562;-33.856;151.182;2023-06-24T10:42:38;4.80;;;2.40;;
20802;SDS011;10562;-33.856;151.182;2023-06-24T10:45:19;3.95;;;2.20;;
20802;SDS011;10562;-33.856;151.182;2023-06-24T10:47:51;4.53;;;2.30;;
20802;SDS011;10562;-33.856;151.182;2023-06-24T10:50:22;4.18;;;1.90;;
20802;SDS011;10562;-33.856;151.182;2023-06-24T10:52:54;3.08;;;1.88;;
20802;SDS011;10562;-33.856;151.182;2023-06-24T10:55:29;5.10;;;2.15;;
20802;SDS011;10562;-33.856;151.182;2023-06-24T10:58:07;4.55;;;2.00;;
20802;SDS011;10562;-33.856;151.182;2023-06-24T11:00:39;3.97;;;1.90;;
20802;SDS011;10562;-33.856;151.182;2023-06-24T11:03:12;3.45;;;1.80;;
20802;SDS011;10562;-33.856;151.182;2023-06-24T11:05:44;4.20;;;2.13;;
20802;SDS011;10562;-33.856;151.182;2023-06-24T11:08:15;3.55;;;1.65;;
20802;SDS011;10562;-33.856;151.182;2023-06-24T11:10:48;4.47;;;2.10;;
20802;SDS011;10562;-33.856;151.182;2023-06-24T11:13:20;4.60;;;1.90;;
20802;SDS011;10562;-33.856;151.182;2023-06-24T11:15:51;3.33;;;1.70;;
20802;SDS011;10562;-33.856;151.182;2023-06-24T11:18:29;2.63;;;1.60;;
20802;SDS011;10562;-33.856;151.182;2023-06-24T11:21:09;4.70;;;1.92;;
20802;SDS011;10562;-33.856;151.182;2023-06-24T11:23:39;3.25;;;2.03;;
20802;SDS011;10562;-33.856;151.182;2023-06-24T11:26:12;4.00;;;1.80;;
20802;SDS011;10562;-33.856;151.182;2023-06-24T11:28:45;3.45;;;1.63;;
20802;SDS011;10562;-33.856;151.182;2023-06-24T11:31:17;2.25;;;1.50;;
20802;SDS011;10562;-33.856;151.182;2023-06-24T11:33:52;2.22;;;1.30;;
20802;SDS011;10562;-33.856;151.182;2023-06-24T11:36:23;2.92;;;1.60;;
20802;SDS011;10562;-33.856;151.182;2023-06-24T11:38:54;3.75;;;1.40;;
20802;SDS011;10562;-33.856;151.182;2023-06-24T11:41:27;2.25;;;1.50;;
20802;SDS011;10562;-33.856;151.182;2023-06-24T11:43:58;3.00;;;1.70;;
20802;SDS011;10562;-33.856;151.182;2023-06-24T11:46:30;2.60;;;1.42;;
20802;SDS011;10562;-33.856;151.182;2023-06-24T11:49:05;2.28;;;1.40;;
20802;SDS011;10562;-33.856;151.182;2023-06-24T11:51:36;2.97;;;1.35;;
20802;SDS011;10562;-33.856;151.182;2023-06-24T11:54:14;2.35;;;1.30;;
20802;SDS011;10562;-33.856;151.182;2023-06-24T11:56:49;4.35;;;1.52;;
20802;SDS011;10562;-33.856;151.182;2023-06-24T11:59:21;3.35;;;1.50;;
20802;SDS011;10562;-33.856;151.182;2023-06-24T12:01:52;3.03;;;1.63;;
20802;SDS011;10562;-33.856;151.182;2023-06-24T12:04:29;2.65;;;1.60;;
20802;SDS011;10562;-33.856;151.182;2023-06-24T12:07:01;4.13;;;1.67;;
20802;SDS011;10562;-33.856;151.182;2023-06-24T12:09:33;3.75;;;1.83;;
20802;SDS011;10562;-33.856;151.182;2023-06-24T12:12:09;3.13;;;1.70;;
20802;SDS011;10562;-33.856;151.182;2023-06-24T12:14:40;3.10;;;1.70;;
20802;SDS011;10562;-33.856;151.182;2023-06-24T12:17:11;3.25;;;1.60;;
20802;SDS011;10562;-33.856;151.182;2023-06-24T12:19:42;2.50;;;1.50;;
20802;SDS011;10562;-33.856;151.182;2023-06-24T12:22:14;3.60;;;1.88;;
20802;SDS011;10562;-33.856;151.182;2023-06-24T12:24:46;1.67;;;1.13;;
20802;SDS011;10562;-33.856;151.182;2023-06-24T12:27:19;2.28;;;1.30;;
20802;SDS011;10562;-33.856;151.182;2023-06-24T12:29:50;2.70;;;1.40;;
20802;SDS011;10562;-33.856;151.182;2023-06-24T12:32:20;2.55;;;1.30;;
20802;SDS011;10562;-33.856;151.182;2023-06-24T12:34:51;3.10;;;1.40;;
20802;SDS011;10562;-33.856;151.182;2023-06-24T12:37:22;2.42;;;1.30;;
20802;SDS011;10562;-33.856;151.182;2023-06-24T12:39:53;3.08;;;1.45;;
20802;SDS011;10562;-33.856;151.182;2023-06-24T12:42:26;1.92;;;1.23;;
20802;SDS011;10562;-33.856;151.182;2023-06-24T12:44:57;1.73;;;1.10;;
20802;SDS011;10562;-33.856;151.182;2023-06-24T12:47:28;2.20;;;1.13;;
20802;SDS011;10562;-33.856;151.182;2023-06-24T12:49:59;1.98;;;1.10;;
20802;SDS011;10562;-33.856;151.182;2023-06-24T12:52:32;1.88;;;1.20;;
20802;SDS011;10562;-33.856;151.182;2023-06-24T12:55:03;2.17;;;1.20;;
20802;SDS011;10562;-33.856;151.182;2023-06-24T12:57:36;1.50;;;1.00;;
20802;SDS011;10562;-33.856;151.182;2023-06-24T13:00:07;2.97;;;1.45;;
20802;SDS011;10562;-33.856;151.182;2023-06-24T13:02:39;2.53;;;1.30;;
20802;SDS011;10562;-33.856;151.182;2023-06-24T13:05:10;2.83;;;1.35;;
20802;SDS011;10562;-33.856;151.182;2023-06-24T13:07:41;2.45;;;1.50;;
20802;SDS011;10562;-33.856;151.182;2023-06-24T13:10:12;3.28;;;1.52;;
20802;SDS011;10562;-33.856;151.182;2023-06-24T13:12:45;3.33;;;1.30;;
20802;SDS011;10562;-33.856;151.182;2023-06-24T13:15:15;1.55;;;1.10;;
20802;SDS011;10562;-33.856;151.182;2023-06-24T13:17:46;1.65;;;0.98;;
20802;SDS011;10562;-33.856;151.182;2023-06-24T13:20:18;1.83;;;0.93;;
20802;SDS011;10562;-33.856;151.182;2023-06-24T13:23:01;1.42;;;0.90;;
20802;SDS011;10562;-33.856;151.182;2023-06-24T13:25:32;1.77;;;0.95;;
20802;SDS011;10562;-33.856;151.182;2023-06-24T13:28:05;1.83;;;0.93;;
20802;SDS011;10562;-33.856;151.182;2023-06-24T13:30:36;2.42;;;0.90;;
20802;SDS011;10562;-33.856;151.182;2023-06-24T13:33:06;2.47;;;0.70;;
20802;SDS011;10562;-33.856;151.182;2023-06-24T13:35:37;1.35;;;0.90;;
20802;SDS011;10562;-33.856;151.182;2023-06-24T13:38:10;2.30;;;0.88;;
20802;SDS011;10562;-33.856;151.182;2023-06-24T13:40:41;1.27;;;0.95;;
20802;SDS011;10562;-33.856;151.182;2023-06-24T13:43:16;0.90;;;0.85;;
20802;SDS011;10562;-33.856;151.182;2023-06-24T13:45:47;1.02;;;0.70;;
20802;SDS011;10562;-33.856;151.182;2023-06-24T13:48:18;1.10;;;0.70;;
20802;SDS011;10562;-33.856;151.182;2023-06-24T13:50:49;1.55;;;0.82;;
20802;SDS011;10562;-33.856;151.182;2023-06-24T13:53:23;1.77;;;1.02;;
20802;SDS011;10562;-33.856;151.182;2023-06-24T13:55:53;2.22;;;1.05;;
20802;SDS011;10562;-33.856;151.182;2023-06-24T13:58:26;1.13;;;0.90;;
20802;SDS011;10562;-33.856;151.182;2023-06-24T14:00:57;1.67;;;0.90;;
20802;SDS011;10562;-33.856;151.182;2023-06-24T14:03:29;1.98;;;1.00;;
20802;SDS011;10562;-33.856;151.182;2023-06-24T14:06:00;1.13;;;0.90;;
20802;SDS011;10562;-33.856;151.182;2023-06-24T14:08:31;2.75;;;1.00;;
20802;SDS011;10562;-33.856;151.182;2023-06-24T14:11:02;1.23;;;0.90;;
20802;SDS011;10562;-33.856;151.182;2023-06-24T14:13:35;1.65;;;1.00;;
20802;SDS011;10562;-33.856;151.182;2023-06-24T14:16:05;2.03;;;1.17;;
20802;SDS011;10562;-33.856;151.182;2023-06-24T14:18:38;2.47;;;1.00;;
20802;SDS011;10562;-33.856;151.182;2023-06-24T14:21:09;1.25;;;0.80;;
20802;SDS011;10562;-33.856;151.182;2023-06-24T14:23:40;1.80;;;0.80;;
20802;SDS011;10562;-33.856;151.182;2023-06-24T14:26:11;1.08;;;0.70;;
20802;SDS011;10562;-33.856;151.182;2023-06-24T14:28:43;1.42;;;0.75;;
20802;SDS011;10562;-33.856;151.182;2023-06-24T14:31:14;1.05;;;0.70;;
20802;SDS011;10562;-33.856;151.182;2023-06-24T14:33:45;1.35;;;0.80;;
20802;SDS011;10562;-33.856;151.182;2023-06-24T14:36:16;1.88;;;0.80;;
20802;SDS011;10562;-33.856;151.182;2023-06-24T14:38:47;0.80;;;0.60;;
20802;SDS011;10562;-33.856;151.182;2023-06-24T14:41:18;1.00;;;0.80;;